BBC356 LIRF-VGHS
Flight info
| Callsign | BBC356 |
|---|---|
| Flight time | N/A |
| Altitude | 19000 |
| Route | OKUNO L5 ATRUP/N0489F360 DCT PES DCT ETRIN DCT XOLTA/N0486F370 DCT RAMAP DCT NISVA Q13 UDROS UM859 KARDE UN644 ROLIN N644 LAGAS DCT DISKA M737 VERCA M747 SUBUT T923 ERLEV M11 RODAR A909 TUNEK DCT TUGTA A909 BIBIM/N0487F390 A909 LEMOD N644 DI M875 JHANG DCT ENRIR DCT PATNI DCT SULOM M890 CHG W35 ONOGI DCT SP DCT GUVGU DCT BRL J98 TATAK DCT KEVOD J71 PPT A201 RAJ G463 IDLOX |
| Aircraft | B789/H-SDE1E2E3FGHIJ2J3J4J5M1RWXY/LB1D1 |
Departure
| Time | 2026-05-05 17:48 |
|---|---|
| Airport | Rome–Fiumicino Leonardo da Vinci International Airport (LIRF) |
Arrival
| Time | N/A |
|---|---|
| Airport | Hazrat Shahjalal International Airport (VGHS) |
| Time | Latitude | Longitude | Altitude | Speed | Heading |
|---|---|---|---|---|---|
| 2026-05-05 17:26 | 41.79674 | 12.24099 | 20 ft | 0 kts | 159° |
| 2026-05-05 17:35 | 41.79675 | 12.24099 | 20 ft | 2 kts | 159° |
| 2026-05-05 17:35 | 41.79691 | 12.24091 | 23 ft | 2 kts | 159° |
| 2026-05-05 17:35 | 41.79706 | 12.24083 | 23 ft | 2 kts | 159° |
| 2026-05-05 17:36 | 41.79722 | 12.24076 | 23 ft | 2 kts | 160° |
| 2026-05-05 17:36 | 41.79736 | 12.24066 | 23 ft | 2 kts | 139° |
| 2026-05-05 17:36 | 41.79744 | 12.24047 | 24 ft | 2 kts | 89° |
| 2026-05-05 17:36 | 41.79740 | 12.24025 | 23 ft | 2 kts | 70° |
| 2026-05-05 17:37 | 41.79739 | 12.24019 | 24 ft | 0 kts | 70° |
| 2026-05-05 17:39 | 41.79739 | 12.24022 | 24 ft | 2 kts | 70° |
| 2026-05-05 17:40 | 41.79747 | 12.24050 | 25 ft | 5 kts | 70° |
| 2026-05-05 17:40 | 41.79765 | 12.24114 | 20 ft | 8 kts | 70° |
| 2026-05-05 17:40 | 41.79785 | 12.24187 | 20 ft | 8 kts | 70° |
| 2026-05-05 17:40 | 41.79817 | 12.24268 | 20 ft | 10 kts | 38° |
| 2026-05-05 17:41 | 41.79890 | 12.24268 | 22 ft | 12 kts | 342° |
| 2026-05-05 17:41 | 41.79982 | 12.24225 | 20 ft | 15 kts | 347° |
| 2026-05-05 17:41 | 41.80038 | 12.24264 | 20 ft | 8 kts | 60° |
| 2026-05-05 17:41 | 41.80065 | 12.24353 | 20 ft | 13 kts | 70° |
| 2026-05-05 17:42 | 41.80100 | 12.24484 | 20 ft | 17 kts | 69° |
| 2026-05-05 17:42 | 41.80147 | 12.24653 | 20 ft | 21 kts | 69° |
| 2026-05-05 17:42 | 41.80199 | 12.24857 | 20 ft | 25 kts | 76° |
| 2026-05-05 17:42 | 41.80214 | 12.25099 | 20 ft | 25 kts | 72° |
| 2026-05-05 17:43 | 41.80272 | 12.25315 | 20 ft | 24 kts | 70° |
| 2026-05-05 17:43 | 41.80327 | 12.25516 | 20 ft | 22 kts | 70° |
| 2026-05-05 17:43 | 41.80380 | 12.25703 | 20 ft | 21 kts | 69° |
| 2026-05-05 17:43 | 41.80430 | 12.25877 | 20 ft | 19 kts | 69° |
| 2026-05-05 17:44 | 41.80476 | 12.26043 | 20 ft | 19 kts | 70° |
| 2026-05-05 17:44 | 41.80526 | 12.26230 | 20 ft | 22 kts | 70° |
| 2026-05-05 17:44 | 41.80575 | 12.26412 | 20 ft | 20 kts | 70° |
| 2026-05-05 17:44 | 41.80623 | 12.26587 | 20 ft | 19 kts | 70° |
| 2026-05-05 17:45 | 41.80668 | 12.26748 | 20 ft | 18 kts | 69° |
| 2026-05-05 17:45 | 41.80711 | 12.26903 | 20 ft | 17 kts | 70° |
| 2026-05-05 17:45 | 41.80758 | 12.27038 | 20 ft | 13 kts | 37° |
| 2026-05-05 17:45 | 41.80818 | 12.27038 | 20 ft | 9 kts | 342° |
| 2026-05-05 17:46 | 41.80889 | 12.27004 | 20 ft | 13 kts | 340° |
| 2026-05-05 17:46 | 41.80961 | 12.26937 | 18 ft | 7 kts | 289° |
| 2026-05-05 17:46 | 41.80957 | 12.26909 | 19 ft | 4 kts | 247° |
| 2026-05-05 17:46 | 41.80943 | 12.26863 | 19 ft | 1 kts | 250° |
| 2026-05-05 17:47 | 41.80941 | 12.26856 | 19 ft | 6 kts | 250° |
| 2026-05-05 17:47 | 41.80865 | 12.26582 | 21 ft | 60 kts | 249° |
| 2026-05-05 17:47 | 41.80649 | 12.25803 | 26 ft | 117 kts | 250° |
| 2026-05-05 17:48 | 41.80298 | 12.24564 | 26 ft | 166 kts | 249° |
| 2026-05-05 17:48 | 41.79896 | 12.23015 | 365 ft | 173 kts | 255° |
| 2026-05-05 17:48 | 41.79525 | 12.21488 | 968 ft | 177 kts | 247° |
| 2026-05-05 17:48 | 41.79284 | 12.19831 | 1678 ft | 182 kts | 261° |
| 2026-05-05 17:49 | 41.79245 | 12.18102 | 2207 ft | 198 kts | 263° |
| 2026-05-05 17:49 | 41.79191 | 12.16221 | 2910 ft | 199 kts | 259° |
| 2026-05-05 17:49 | 41.78653 | 12.14561 | 3648 ft | 194 kts | 229° |
| 2026-05-05 17:49 | 41.77694 | 12.13274 | 4364 ft | 202 kts | 220° |
| 2026-05-05 17:50 | 41.76584 | 12.11916 | 4738 ft | 230 kts | 220° |
| 2026-05-05 17:50 | 41.75343 | 12.10392 | 5313 ft | 247 kts | 221° |
| 2026-05-05 17:50 | 41.74147 | 12.08898 | 6616 ft | 234 kts | 223° |
| 2026-05-05 17:50 | 41.72891 | 12.07330 | 7006 ft | 258 kts | 223° |
| 2026-05-05 17:51 | 41.71582 | 12.05715 | 7994 ft | 255 kts | 221° |
| 2026-05-05 17:51 | 41.70034 | 12.04662 | 8947 ft | 249 kts | 195° |
| 2026-05-05 17:51 | 41.68308 | 12.04363 | 9874 ft | 256 kts | 184° |
| 2026-05-05 17:51 | 41.66509 | 12.04358 | 10586 ft | 260 kts | 182° |
| 2026-05-05 17:52 | 41.64624 | 12.04384 | 10908 ft | 284 kts | 182° |
| 2026-05-05 17:52 | 41.62555 | 12.04390 | 11096 ft | 311 kts | 183° |
| 2026-05-05 17:52 | 41.60315 | 12.04727 | 11244 ft | 341 kts | 164° |
| 2026-05-05 17:52 | 41.58128 | 12.06263 | 11417 ft | 372 kts | 143° |
| 2026-05-05 17:53 | 41.56437 | 12.08947 | 12062 ft | 385 kts | 121° |
| 2026-05-05 17:53 | 41.55518 | 12.12282 | 12801 ft | 394 kts | 101° |
| 2026-05-05 17:53 | 41.55449 | 12.15957 | 13548 ft | 401 kts | 83° |
| 2026-05-05 17:53 | 41.55968 | 12.19645 | 14220 ft | 407 kts | 77° |
| 2026-05-05 17:54 | 41.56615 | 12.23205 | 14874 ft | 411 kts | 77° |
| 2026-05-05 17:54 | 41.57280 | 12.26936 | 15500 ft | 416 kts | 74° |
| 2026-05-05 17:54 | 41.58360 | 12.30517 | 16126 ft | 419 kts | 58° |
| 2026-05-05 17:54 | 41.60185 | 12.33556 | 16771 ft | 421 kts | 42° |
| 2026-05-05 17:55 | 41.62339 | 12.36257 | 17342 ft | 427 kts | 41° |
| 2026-05-05 17:55 | 41.64558 | 12.38914 | 17983 ft | 431 kts | 40° |
| 2026-05-05 17:55 | 41.66755 | 12.41590 | 18546 ft | 436 kts | 41° |
| 2026-05-05 17:55 | 41.68963 | 12.44394 | 19121 ft | 439 kts | 42° |
| 2026-05-05 17:56 | 41.71182 | 12.47205 | 19675 ft | 442 kts | 41° |
| 2026-05-05 17:56 | 41.73445 | 12.50013 | 20224 ft | 445 kts | 41° |
| 2026-05-05 17:56 | 41.75725 | 12.52840 | 20761 ft | 448 kts | 41° |
| 2026-05-05 17:56 | 41.78002 | 12.55699 | 21283 ft | 451 kts | 41° |
| 2026-05-05 17:57 | 41.80312 | 12.58576 | 21773 ft | 453 kts | 38° |
| 2026-05-05 17:57 | 41.82835 | 12.61019 | 22217 ft | 455 kts | 32° |
| 2026-05-05 17:57 | 41.85443 | 12.63453 | 22706 ft | 458 kts | 33° |
| 2026-05-05 17:57 | 41.88058 | 12.65920 | 23167 ft | 462 kts | 33° |
| 2026-05-05 17:58 | 41.90696 | 12.68411 | 23624 ft | 465 kts | 33° |
| 2026-05-05 17:58 | 41.93353 | 12.70909 | 24003 ft | 468 kts | 33° |
| 2026-05-05 17:58 | 41.96028 | 12.73424 | 24366 ft | 471 kts | 33° |
| 2026-05-05 17:58 | 41.98716 | 12.75962 | 24710 ft | 474 kts | 33° |
| 2026-05-05 17:59 | 42.01409 | 12.78533 | 25039 ft | 477 kts | 36° |
| 2026-05-05 17:59 | 42.03825 | 12.81631 | 25392 ft | 484 kts | 49° |
| 2026-05-05 17:59 | 42.05718 | 12.85318 | 25690 ft | 489 kts | 59° |
| 2026-05-05 17:59 | 42.07407 | 12.89316 | 25956 ft | 493 kts | 59° |
| 2026-05-05 18:00 | 42.09086 | 12.93347 | 26284 ft | 496 kts | 59° |
| 2026-05-05 18:00 | 42.10777 | 12.97411 | 26584 ft | 499 kts | 60° |
| 2026-05-05 18:00 | 42.12369 | 13.01572 | 26851 ft | 502 kts | 60° |
| 2026-05-05 18:00 | 42.14024 | 13.05723 | 27195 ft | 504 kts | 60° |
| 2026-05-05 18:01 | 42.15685 | 13.09899 | 27472 ft | 507 kts | 60° |
| 2026-05-05 18:01 | 42.17292 | 13.14070 | 27770 ft | 510 kts | 61° |
| 2026-05-05 18:01 | 42.18928 | 13.18324 | 28060 ft | 512 kts | 60° |
| 2026-05-05 18:01 | 42.20596 | 13.22586 | 28303 ft | 516 kts | 60° |
| 2026-05-05 18:02 | 42.22276 | 13.26868 | 28596 ft | 518 kts | 60° |
| 2026-05-05 18:02 | 42.23949 | 13.31188 | 28858 ft | 521 kts | 60° |
| 2026-05-05 18:02 | 42.25623 | 13.35531 | 29162 ft | 523 kts | 60° |
| 2026-05-05 18:02 | 42.27311 | 13.39894 | 29398 ft | 525 kts | 60° |
| 2026-05-05 18:03 | 42.29010 | 13.44275 | 29659 ft | 527 kts | 60° |
| 2026-05-05 18:03 | 42.30686 | 13.48617 | 29883 ft | 530 kts | 60° |
| 2026-05-05 18:03 | 42.32387 | 13.53044 | 30135 ft | 532 kts | 60° |
| 2026-05-05 18:03 | 42.34073 | 13.57506 | 30314 ft | 535 kts | 64° |
| 2026-05-05 18:04 | 42.35293 | 13.62275 | 30519 ft | 540 kts | 76° |
| 2026-05-05 18:04 | 42.36058 | 13.67253 | 30649 ft | 543 kts | 77° |
| 2026-05-05 18:04 | 42.36797 | 13.72258 | 30882 ft | 544 kts | 78° |
| 2026-05-05 18:04 | 42.37537 | 13.77290 | 31055 ft | 546 kts | 77° |
| 2026-05-05 18:05 | 42.38279 | 13.82255 | 31238 ft | 548 kts | 77° |
| 2026-05-05 18:05 | 42.39033 | 13.87296 | 31546 ft | 546 kts | 77° |
| 2026-05-05 18:05 | 42.39776 | 13.92341 | 31779 ft | 547 kts | 77° |
| 2026-05-05 18:05 | 42.40514 | 13.97386 | 31980 ft | 548 kts | 77° |
| 2026-05-05 18:06 | 42.41257 | 14.02446 | 32228 ft | 548 kts | 77° |
| 2026-05-05 18:06 | 42.41749 | 14.05797 | 32392 ft | 548 kts | 77° |
| 2026-05-05 18:06 | 42.42736 | 14.12560 | 32714 ft | 548 kts | 77° |
| 2026-05-05 18:06 | 42.43525 | 14.17594 | 32942 ft | 547 kts | 71° |
| 2026-05-05 18:07 | 42.44846 | 14.22398 | 33166 ft | 543 kts | 64° |
| 2026-05-05 18:07 | 42.46323 | 14.27032 | 33355 ft | 543 kts | 63° |
| 2026-05-05 18:07 | 42.47839 | 14.31716 | 33621 ft | 543 kts | 63° |
| 2026-05-05 18:07 | 42.49339 | 14.36400 | 33862 ft | 543 kts | 64° |
| 2026-05-05 18:08 | 42.50823 | 14.41101 | 34078 ft | 543 kts | 64° |
| 2026-05-05 18:08 | 42.52309 | 14.45804 | 34311 ft | 542 kts | 63° |
| 2026-05-05 18:08 | 42.53799 | 14.50486 | 34565 ft | 540 kts | 63° |
| 2026-05-05 18:08 | 42.55281 | 14.55154 | 34808 ft | 539 kts | 63° |
| 2026-05-05 18:09 | 42.56752 | 14.59821 | 35057 ft | 537 kts | 64° |
| 2026-05-05 18:09 | 42.58196 | 14.64412 | 35306 ft | 536 kts | 64° |